createdAt,value
2023-03-11T00:01:59.686Z,99900.78
2023-03-11T00:04:03.134Z,99903.72
2023-03-11T00:06:08.383Z,99909.16
2023-03-11T00:08:15.013Z,99911.44
2023-03-11T00:10:20.250Z,99917.66
2023-03-11T00:12:23.642Z,99921.94
2023-03-11T00:14:27.063Z,99926.56
2023-03-11T00:16:30.508Z,99922.28
2023-03-11T00:18:33.950Z,99921.56
2023-03-11T00:20:39.159Z,99881.97
2023-03-11T00:22:43.909Z,99936.13
2023-03-11T00:24:47.202Z,99930.75
2023-03-11T00:26:50.558Z,99938.03
2023-03-11T00:28:55.450Z,99938.97
2023-03-11T00:30:58.752Z,99947.44
2023-03-11T00:33:04.840Z,99815.38
2023-03-11T00:35:13.786Z,99954.63
2023-03-11T00:37:17.495Z,99956.38
2023-03-11T00:39:23.250Z,99967.19
2023-03-11T00:41:26.952Z,99963.81
2023-03-11T00:43:30.273Z,99958.91
2023-03-11T00:45:34.218Z,99969.09
2023-03-11T00:47:37.715Z,99967.50
2023-03-11T00:49:41.132Z,99973.31
2023-03-11T00:51:44.835Z,99973.31
2023-03-11T00:53:48.154Z,99970.88
2023-03-11T00:55:53.424Z,99971.59
2023-03-11T00:57:58.345Z,99974.84
2023-03-11T01:00:04.571Z,99986.09
2023-03-11T01:02:08.004Z,99985.28
2023-03-11T01:04:11.547Z,99983.88
2023-03-11T01:06:15.737Z,99955.94
2023-03-11T01:08:19.074Z,100000.13
2023-03-11T01:10:22.660Z,99996.66
2023-03-11T01:12:27.388Z,99999.88
2023-03-11T01:14:30.683Z,99997.16
2023-03-11T01:16:34.083Z,100006.28
2023-03-11T01:18:37.590Z,99997.84
2023-03-11T01:20:41.343Z,100001.31
2023-03-11T01:22:44.832Z,100006.75
2023-03-11T01:24:48.181Z,100003.03
2023-03-11T01:26:51.568Z,99997.59
2023-03-11T01:28:56.236Z,100008.25
2023-03-11T01:30:59.892Z,100002.56
2023-03-11T01:33:04.041Z,100013.00
2023-03-11T01:35:08.215Z,100011.22
2023-03-11T01:37:11.679Z,100014.03
2023-03-11T01:39:14.990Z,100022.13
2023-03-11T01:41:18.481Z,100021.81
2023-03-11T01:43:48.310Z,100018.44
2023-03-11T01:46:13.538Z,100019.31
2023-03-11T01:48:17.969Z,100023.41
2023-03-11T01:50:21.833Z,100033.50
2023-03-11T01:52:25.279Z,100030.00
2023-03-11T01:54:33.179Z,100024.13
2023-03-11T01:56:36.977Z,100018.19
2023-03-11T01:58:45.606Z,100028.34
2023-03-11T02:00:49.361Z,100030.94
2023-03-11T02:02:56.606Z,100033.66
2023-03-11T02:05:02.239Z,100030.50
2023-03-11T02:07:08.126Z,100035.41
2023-03-11T02:09:11.915Z,100033.66
2023-03-11T02:11:18.817Z,99991.06
2023-03-11T02:13:22.621Z,100038.09
2023-03-11T02:15:26.895Z,99981.84
2023-03-11T02:17:31.760Z,100030.09
2023-03-11T02:19:47.775Z,100028.03
2023-03-11T02:21:51.222Z,100040.91
2023-03-11T02:24:06.479Z,100037.97
2023-03-11T02:26:16.204Z,100035.94
2023-03-11T02:28:24.307Z,100036.34
2023-03-11T02:30:28.746Z,100027.13
2023-03-11T02:32:33.181Z,100021.25
2023-03-11T02:34:38.516Z,100033.91
2023-03-11T02:36:43.998Z,99910.22
2023-03-11T02:38:50.192Z,100031.53
2023-03-11T02:40:56.668Z,100038.28
2023-03-11T02:43:07.504Z,100043.84
2023-03-11T02:45:16.116Z,100040.03
2023-03-11T02:47:19.809Z,100040.69
2023-03-11T02:49:24.403Z,100054.38
2023-03-11T02:51:27.828Z,100053.69
2023-03-11T02:53:35.332Z,100053.00
2023-03-11T02:55:39.161Z,100061.88
2023-03-11T02:57:44.127Z,100061.75
2023-03-11T02:59:47.977Z,100054.66
2023-03-11T03:01:53.109Z,100077.59
2023-03-11T03:03:58.354Z,100054.31
2023-03-11T03:06:02.178Z,100011.88
2023-03-11T03:08:05.597Z,100057.25
2023-03-11T03:10:10.384Z,100059.09
2023-03-11T03:12:13.756Z,100056.22
2023-03-11T03:14:17.434Z,100055.03
2023-03-11T03:16:21.088Z,100059.69
2023-03-11T03:18:26.936Z,100052.31
2023-03-11T03:20:30.354Z,100059.69
2023-03-11T03:22:36.618Z,100061.81
2023-03-11T03:24:40.211Z,100072.06
2023-03-11T03:26:43.795Z,100061.75
2023-03-11T03:28:47.733Z,100069.47
2023-03-11T03:30:51.418Z,100067.13
2023-03-11T03:32:54.897Z,100066.97
2023-03-11T03:34:59.976Z,100072.81
2023-03-11T03:37:16.808Z,100078.34
2023-03-11T03:39:20.449Z,100074.25
2023-03-11T03:41:26.408Z,100041.84
2023-03-11T03:43:31.268Z,100072.13
2023-03-11T03:45:35.482Z,100089.00
2023-03-11T03:47:39.241Z,100089.44
2023-03-11T03:49:42.621Z,100090.72
2023-03-11T03:51:47.531Z,100088.38
2023-03-11T03:54:03.049Z,100083.50
2023-03-11T03:56:09.070Z,100101.09
2023-03-11T03:58:13.108Z,100085.44
2023-03-11T04:00:17.547Z,100097.91
2023-03-11T04:02:25.179Z,100104.25
2023-03-11T04:04:29.028Z,100072.22
2023-03-11T04:06:33.675Z,100099.59
2023-03-11T04:08:42.477Z,100113.00
2023-03-11T04:10:57.395Z,100110.00
2023-03-11T04:13:02.441Z,100101.75
2023-03-11T04:15:07.284Z,100112.72
2023-03-11T04:17:12.789Z,100125.09
2023-03-11T04:19:21.154Z,100130.75
2023-03-11T04:21:24.897Z,100126.66
2023-03-11T04:23:29.920Z,100138.97
2023-03-11T04:25:35.372Z,100134.03
2023-03-11T04:27:42.579Z,100134.66
2023-03-11T04:29:46.401Z,100131.00
2023-03-11T04:31:49.963Z,100106.94
2023-03-11T04:33:54.587Z,100131.00
2023-03-11T04:35:58.707Z,100005.56
2023-03-11T04:38:02.286Z,100149.03
2023-03-11T04:40:06.921Z,100141.16
2023-03-11T04:42:13.931Z,100146.59
2023-03-11T04:44:19.357Z,100153.66
2023-03-11T04:46:23.161Z,100152.84
2023-03-11T04:48:27.620Z,100114.66
2023-03-11T04:50:31.362Z,100150.72
2023-03-11T04:52:34.722Z,100172.44
2023-03-11T04:54:38.107Z,100164.50
2023-03-11T04:56:42.299Z,100165.03
2023-03-11T04:58:47.067Z,100165.38
2023-03-11T05:00:50.745Z,100167.56
2023-03-11T05:02:54.495Z,100177.47
2023-03-11T05:04:58.610Z,100136.97
2023-03-11T05:07:02.418Z,100132.56
2023-03-11T05:09:07.347Z,100158.97
2023-03-11T05:11:14.461Z,100165.09
2023-03-11T05:13:20.337Z,100167.97
2023-03-11T05:15:25.679Z,100178.50
2023-03-11T05:17:29.353Z,100175.06
2023-03-11T05:19:34.685Z,100178.56
2023-03-11T05:21:44.619Z,100181.94
2023-03-11T05:23:48.019Z,100176.91
2023-03-11T05:25:51.661Z,100181.31
2023-03-11T05:27:55.072Z,100183.09
2023-03-11T05:29:58.530Z,100186.53
2023-03-11T05:32:05.691Z,100182.44
2023-03-11T05:34:09.106Z,100186.75
2023-03-11T05:36:12.642Z,100177.03
2023-03-11T05:38:19.037Z,100190.22
2023-03-11T05:40:22.972Z,100195.53
2023-03-11T05:42:27.531Z,100189.63
2023-03-11T05:44:33.241Z,100195.97
2023-03-11T05:46:36.785Z,100195.03
2023-03-11T05:48:43.805Z,100200.19
2023-03-11T05:50:49.317Z,100195.97
2023-03-11T05:52:52.882Z,100200.25
2023-03-11T05:54:58.138Z,100208.13
2023-03-11T05:57:04.694Z,100193.19
2023-03-11T05:59:10.420Z,100209.00
2023-03-11T06:01:16.936Z,100206.59
2023-03-11T06:03:20.971Z,100203.94
2023-03-11T06:05:25.765Z,100216.81
2023-03-11T06:07:31.143Z,100209.00
2023-03-11T06:09:36.853Z,100214.97
2023-03-11T06:11:42.005Z,100209.00
2023-03-11T06:13:45.502Z,100219.25
2023-03-11T06:15:49.745Z,100219.16
2023-03-11T06:17:53.714Z,100221.72
2023-03-11T06:19:57.030Z,100221.97
2023-03-11T06:22:01.891Z,100227.16
2023-03-11T06:24:06.723Z,100237.59
2023-03-11T06:26:13.416Z,100234.88
2023-03-11T06:28:19.046Z,100237.38
2023-03-11T06:30:22.990Z,100244.94
2023-03-11T06:32:35.380Z,100245.00
2023-03-11T06:34:38.905Z,100244.44
2023-03-11T06:36:43.612Z,100251.28
2023-03-11T06:38:50.061Z,100247.69
2023-03-11T06:40:53.899Z,100249.22
2023-03-11T06:42:57.485Z,100251.06
2023-03-11T06:45:02.826Z,100254.41
2023-03-11T06:47:06.538Z,100260.88
2023-03-11T06:49:10.086Z,100265.94
2023-03-11T06:51:15.864Z,100265.28
2023-03-11T06:53:19.983Z,100220.16
2023-03-11T06:55:24.987Z,100265.53
2023-03-11T06:57:29.475Z,100214.56
2023-03-11T06:59:34.870Z,100275.66
2023-03-11T07:01:38.718Z,100281.59
2023-03-11T07:03:44.214Z,100267.06
2023-03-11T07:05:51.693Z,100294.38
2023-03-11T07:07:56.500Z,100309.84
2023-03-11T07:10:01.904Z,100310.97
2023-03-11T07:12:07.292Z,100300.44
2023-03-11T07:14:13.147Z,100312.97
2023-03-11T07:16:22.559Z,100317.97
2023-03-11T07:18:28.503Z,100327.38
2023-03-11T07:20:32.997Z,100333.16
2023-03-11T07:22:36.312Z,100324.44
2023-03-11T07:24:39.621Z,100317.56
2023-03-11T07:26:44.613Z,100332.47
2023-03-11T07:28:50.286Z,100340.81
2023-03-11T07:30:54.280Z,100341.63
2023-03-11T07:32:58.312Z,100342.81
2023-03-11T07:35:01.690Z,100350.72
2023-03-11T07:37:05.104Z,100355.06
2023-03-11T07:39:08.542Z,100356.84
2023-03-11T07:41:13.933Z,100357.38
2023-03-11T07:43:17.501Z,100366.47
2023-03-11T07:45:23.441Z,100366.41
2023-03-11T07:47:27.249Z,100317.75
2023-03-11T07:49:30.659Z,100365.78
2023-03-11T07:51:36.107Z,100376.41
2023-03-11T07:53:40.651Z,100377.59
2023-03-11T07:55:43.953Z,100377.94
2023-03-11T07:57:48.742Z,100386.69
2023-03-11T07:59:52.431Z,100396.28
2023-03-11T08:01:57.130Z,100390.63
2023-03-11T08:04:00.494Z,100371.78
2023-03-11T08:06:04.867Z,100378.97
2023-03-11T08:08:08.205Z,100391.75
2023-03-11T08:10:12.850Z,100399.31
2023-03-11T08:12:17.024Z,100390.97
2023-03-11T08:14:20.447Z,100386.59
2023-03-11T08:16:23.845Z,100391.25
2023-03-11T08:18:28.479Z,100390.25
2023-03-11T08:20:31.994Z,100397.44
2023-03-11T08:22:36.147Z,100372.34
2023-03-11T08:24:40.277Z,100396.25
2023-03-11T08:26:43.800Z,100405.25
2023-03-11T08:28:47.853Z,100401.97
2023-03-11T08:30:51.212Z,100407.66
2023-03-11T08:32:54.813Z,100400.25
2023-03-11T08:35:00.241Z,100386.00
2023-03-11T08:37:03.818Z,100397.19
2023-03-11T08:39:07.587Z,100404.53
2023-03-11T08:41:11.134Z,100406.44
2023-03-11T08:43:15.799Z,100395.25
2023-03-11T08:45:19.568Z,100402.56
2023-03-11T08:47:23.055Z,100408.09
2023-03-11T08:49:26.557Z,100401.97
2023-03-11T08:51:32.698Z,100405.59
2023-03-11T08:53:37.612Z,100407.78
2023-03-11T08:55:41.057Z,100405.94
2023-03-11T08:57:44.490Z,100416.13
2023-03-11T08:59:47.923Z,100416.72
2023-03-11T09:01:51.384Z,100422.16
2023-03-11T09:03:54.778Z,100415.53
2023-03-11T09:05:58.879Z,100423.34
2023-03-11T09:08:05.719Z,100417.16
2023-03-11T09:10:10.290Z,100430.63
2023-03-11T09:12:14.064Z,100423.13
2023-03-11T09:14:17.557Z,100429.19
2023-03-11T09:16:22.874Z,100423.31
2023-03-11T09:18:27.285Z,100413.75
2023-03-11T09:20:30.646Z,100434.16
2023-03-11T09:22:34.037Z,100387.44
2023-03-11T09:24:38.875Z,100423.31
2023-03-11T09:26:42.199Z,100414.16
2023-03-11T09:28:48.967Z,100423.13
2023-03-11T09:30:52.724Z,100421.91
2023-03-11T09:32:56.124Z,100411.94
2023-03-11T09:35:00.185Z,100401.75
2023-03-11T09:37:03.525Z,100403.97
2023-03-11T09:39:06.891Z,100412.09
2023-03-11T09:41:26.769Z,100420.78
2023-03-11T09:43:48.372Z,100417.44
2023-03-11T09:45:56.534Z,100412.53
2023-03-11T09:48:13.814Z,100389.00
2023-03-11T09:50:27.466Z,100426.63
2023-03-11T09:52:39.000Z,100437.78
2023-03-11T09:54:46.383Z,100442.56
2023-03-11T09:56:51.781Z,100446.16
2023-03-11T09:59:01.019Z,100464.63
2023-03-11T10:01:10.732Z,100450.41
2023-03-11T10:03:30.247Z,100449.97
2023-03-11T10:05:33.692Z,100452.38
2023-03-11T10:07:41.212Z,100445.19
2023-03-11T10:09:49.127Z,100457.34
2023-03-11T10:12:03.594Z,100452.75
2023-03-11T10:14:15.473Z,100463.31
2023-03-11T10:16:25.869Z,100475.13
2023-03-11T10:18:44.756Z,100478.19
2023-03-11T10:20:57.769Z,100454.38
2023-03-11T10:23:13.046Z,100484.25
2023-03-11T10:25:18.138Z,100474.16
2023-03-11T10:27:28.610Z,100471.31
2023-03-11T10:29:39.696Z,100473.16
2023-03-11T10:31:47.655Z,100486.88
2023-03-11T10:33:56.020Z,100486.09
2023-03-11T10:36:04.787Z,100476.66
2023-03-11T10:38:15.856Z,100486.81
2023-03-11T10:40:27.806Z,100483.66
2023-03-11T10:42:34.886Z,100484.56
2023-03-11T10:44:39.889Z,100480.16
2023-03-11T10:46:45.310Z,100491.00
2023-03-11T10:48:49.061Z,100498.28
2023-03-11T10:50:58.362Z,100494.44
2023-03-11T10:53:14.321Z,100493.41
2023-03-11T10:55:19.912Z,100459.91
2023-03-11T10:57:28.161Z,100498.97
2023-03-11T10:59:34.994Z,100492.75
2023-03-11T11:01:38.410Z,100487.78
2023-03-11T11:03:43.254Z,100481.47
2023-03-11T11:05:58.979Z,100472.16
2023-03-11T11:08:08.400Z,100476.38
2023-03-11T11:10:18.827Z,100481.81
2023-03-11T11:12:22.309Z,100485.72
2023-03-11T11:14:25.601Z,100484.19
2023-03-11T11:16:30.706Z,100480.56
2023-03-11T11:18:37.960Z,100479.22
2023-03-11T11:20:54.979Z,100475.81
2023-03-11T11:23:00.550Z,100475.06
2023-03-11T11:25:04.043Z,100487.78
2023-03-11T11:27:16.100Z,100482.63
2023-03-11T11:29:19.620Z,100484.53
2023-03-11T11:31:25.941Z,100485.97
2023-03-11T11:33:32.573Z,100488.09
2023-03-11T11:35:35.998Z,100485.81
2023-03-11T11:37:43.024Z,100489.66
2023-03-11T11:39:51.937Z,100503.91
2023-03-11T11:41:57.452Z,100495.94
2023-03-11T11:44:03.965Z,100499.16
2023-03-11T11:46:14.570Z,100506.13
2023-03-11T11:48:23.639Z,100513.78
2023-03-11T11:50:34.556Z,100506.38
2023-03-11T11:52:45.075Z,100501.03
2023-03-11T11:54:53.972Z,100488.28
2023-03-11T11:56:58.231Z,100481.63
2023-03-11T11:59:02.190Z,100487.25
2023-03-11T12:01:16.287Z,100496.50
2023-03-11T12:03:39.788Z,100477.34
2023-03-11T12:05:52.129Z,100473.88
2023-03-11T12:08:07.326Z,100477.53
2023-03-11T12:10:24.145Z,100471.06
2023-03-11T12:12:33.899Z,100489.28
2023-03-11T12:14:42.786Z,100484.13
2023-03-11T12:16:54.885Z,100489.13
2023-03-11T12:19:01.586Z,100493.84
2023-03-11T12:21:23.655Z,100473.22
2023-03-11T12:23:43.912Z,100487.91
2023-03-11T12:26:03.324Z,100495.28
2023-03-11T12:28:19.565Z,100499.47
2023-03-11T12:30:27.679Z,100399.13
2023-03-11T12:32:35.622Z,100502.25
2023-03-11T12:34:38.924Z,100501.13
2023-03-11T12:36:47.599Z,100509.66
2023-03-11T12:38:51.917Z,100500.09
2023-03-11T12:41:04.207Z,100494.88
2023-03-11T12:43:25.215Z,100493.03
2023-03-11T12:45:50.856Z,100485.97
2023-03-11T12:48:23.982Z,100488.16
2023-03-11T12:50:41.619Z,100493.09
2023-03-11T12:53:04.397Z,100481.16
2023-03-11T12:55:32.794Z,100480.59
2023-03-11T12:57:42.058Z,100482.53
2023-03-11T13:00:12.233Z,100481.75
2023-03-11T13:02:32.617Z,100494.13
2023-03-11T13:04:48.532Z,100495.25
2023-03-11T13:07:09.581Z,100492.56
2023-03-11T13:09:18.370Z,100489.19
2023-03-11T13:11:36.868Z,100488.19
2023-03-11T13:13:41.622Z,100359.00
2023-03-11T13:15:45.053Z,100477.22
2023-03-11T13:17:59.314Z,100482.22
2023-03-11T13:20:02.976Z,100481.31
2023-03-11T13:22:27.456Z,100481.44
2023-03-11T13:24:54.049Z,100485.03
2023-03-11T13:27:04.889Z,100479.94
2023-03-11T13:29:30.412Z,100437.84
2023-03-11T13:31:52.912Z,100492.00
2023-03-11T13:33:58.910Z,100481.09
2023-03-11T13:36:11.592Z,100435.38
2023-03-11T13:38:35.089Z,100481.22
2023-03-11T13:40:41.872Z,100490.41
2023-03-11T13:42:49.364Z,100483.09
2023-03-11T13:44:53.379Z,100484.97
2023-03-11T13:47:02.375Z,100481.00
2023-03-11T13:49:11.260Z,100478.31
2023-03-11T13:51:18.740Z,100484.47
2023-03-11T13:53:26.818Z,100489.03
2023-03-11T13:55:35.714Z,100484.69
2023-03-11T13:57:40.426Z,100489.50
2023-03-11T13:59:43.837Z,100494.53
2023-03-11T14:01:51.441Z,100485.38
2023-03-11T14:03:54.967Z,100492.00
2023-03-11T14:06:01.760Z,100496.69
2023-03-11T14:08:19.188Z,100497.91
2023-03-11T14:10:30.139Z,100497.44
2023-03-11T14:12:33.585Z,100490.47
2023-03-11T14:14:47.714Z,100461.13
2023-03-11T14:16:51.245Z,100489.34
2023-03-11T14:19:04.152Z,100493.91
2023-03-11T14:21:13.739Z,100513.94
2023-03-11T14:23:20.392Z,100507.84
2023-03-11T14:25:26.719Z,100506.09
2023-03-11T14:27:30.265Z,100504.94
2023-03-11T14:29:36.151Z,100496.63
2023-03-11T14:31:43.865Z,100490.53
2023-03-11T14:33:55.957Z,100506.84
2023-03-11T14:36:02.519Z,100500.28
2023-03-11T14:38:21.067Z,100511.81
2023-03-11T14:40:27.222Z,100516.81
2023-03-11T14:42:36.535Z,100517.16
2023-03-11T14:44:42.995Z,100517.63
2023-03-11T14:46:48.746Z,100519.41
2023-03-11T14:48:53.552Z,100528.88
2023-03-11T14:50:58.706Z,100506.34
2023-03-11T14:53:08.863Z,100515.53
2023-03-11T14:55:16.193Z,100486.06
2023-03-11T14:57:24.104Z,100507.38
2023-03-11T14:59:32.418Z,100514.88
2023-03-11T15:01:40.577Z,100526.03
2023-03-11T15:03:51.162Z,100517.75
2023-03-11T15:05:57.529Z,100532.22
2023-03-11T15:08:03.868Z,100522.31
2023-03-11T15:10:10.602Z,100524.53
2023-03-11T15:12:32.808Z,100521.50
2023-03-11T15:14:49.071Z,100441.53
2023-03-11T15:16:53.216Z,100533.78
2023-03-11T15:19:00.810Z,100521.50
2023-03-11T15:21:07.645Z,100529.59
2023-03-11T15:23:21.815Z,100526.53
2023-03-11T15:25:25.399Z,100523.59
2023-03-11T15:27:31.646Z,100513.09
2023-03-11T15:29:37.217Z,100517.00
2023-03-11T15:31:42.584Z,100526.81
2023-03-11T15:33:46.068Z,100524.81
2023-03-11T15:35:51.716Z,100518.09
2023-03-11T15:38:14.634Z,100519.97
2023-03-11T15:40:35.325Z,100519.72
2023-03-11T15:42:46.280Z,100514.50
2023-03-11T15:45:07.264Z,100521.59
2023-03-11T15:47:15.535Z,100465.16
2023-03-11T15:49:19.009Z,100523.28
2023-03-11T15:51:23.855Z,100531.88
2023-03-11T15:53:29.206Z,100522.88
2023-03-11T15:55:32.678Z,100536.84
2023-03-11T15:57:36.072Z,100531.06
2023-03-11T15:59:41.202Z,100541.53
2023-03-11T16:01:46.252Z,100530.38
2023-03-11T16:03:49.754Z,100531.16
2023-03-11T16:05:53.218Z,100521.47
2023-03-11T16:07:57.937Z,100537.34
2023-03-11T16:10:03.906Z,100540.28
2023-03-11T16:12:15.793Z,100529.88
2023-03-11T16:14:22.063Z,100532.16
2023-03-11T16:16:25.548Z,100541.34
2023-03-11T16:18:29.001Z,100525.78
2023-03-11T16:20:35.780Z,100532.50
2023-03-11T16:22:39.452Z,100523.63
2023-03-11T16:24:44.838Z,100514.59
2023-03-11T16:26:48.405Z,100450.53
2023-03-11T16:28:51.725Z,100518.31
2023-03-11T16:30:55.396Z,100477.41
2023-03-11T16:32:59.067Z,100511.84
2023-03-11T16:35:02.505Z,100522.44
2023-03-11T16:37:06.246Z,100510.69
2023-03-11T16:39:10.201Z,100516.06
2023-03-11T16:41:15.393Z,100517.59
2023-03-11T16:43:18.792Z,100516.91
2023-03-11T16:45:22.357Z,100525.59
2023-03-11T16:47:25.933Z,100520.59
2023-03-11T16:49:29.338Z,100521.59
2023-03-11T16:51:33.157Z,100527.47
2023-03-11T16:53:36.448Z,100528.31
2023-03-11T16:55:39.778Z,100525.44
2023-03-11T16:57:44.982Z,100532.41
2023-03-11T16:59:49.360Z,100532.84
2023-03-11T17:01:52.833Z,100534.47
2023-03-11T17:03:56.283Z,100535.03
2023-03-11T17:06:03.783Z,100487.84
2023-03-11T17:08:07.606Z,100537.19
2023-03-11T17:10:12.419Z,100529.25
2023-03-11T17:12:18.330Z,100524.81
2023-03-11T17:14:24.318Z,100534.69
2023-03-11T17:16:27.789Z,100505.50
2023-03-11T17:18:31.184Z,100490.28
2023-03-11T17:20:34.598Z,100537.91
2023-03-11T17:22:37.980Z,100545.59
2023-03-11T17:24:41.442Z,100550.63
2023-03-11T17:26:44.984Z,100545.22
2023-03-11T17:28:48.805Z,100552.16
2023-03-11T17:30:53.489Z,100547.84
2023-03-11T17:32:56.930Z,100549.78
2023-03-11T17:35:00.330Z,100551.34
2023-03-11T17:37:03.701Z,100545.94
2023-03-11T17:39:07.511Z,100542.63
2023-03-11T17:41:12.593Z,100511.75
2023-03-11T17:43:16.964Z,100551.03
2023-03-11T17:45:20.368Z,100555.41
2023-03-11T17:47:26.902Z,100531.03
2023-03-11T17:49:30.582Z,100551.41
2023-03-11T17:51:34.996Z,100549.75
2023-03-11T17:53:39.110Z,100547.63
2023-03-11T17:55:42.411Z,100548.69
2023-03-11T17:57:46.156Z,100540.94
2023-03-11T17:59:51.165Z,100547.16
2023-03-11T18:01:54.588Z,100549.78
2023-03-11T18:03:59.463Z,100556.63
2023-03-11T18:06:04.698Z,100556.59
2023-03-11T18:08:08.053Z,100558.22
2023-03-11T18:10:12.983Z,100554.72
2023-03-11T18:12:16.279Z,100550.31
2023-03-11T18:14:19.700Z,100543.16
2023-03-11T18:16:25.683Z,100550.81
2023-03-11T18:18:30.775Z,100551.44
2023-03-11T18:20:37.652Z,100542.38
2023-03-11T18:22:44.443Z,100554.41
2023-03-11T18:24:49.382Z,100519.72
2023-03-11T18:26:52.767Z,100550.50
2023-03-11T18:28:56.490Z,100551.22
2023-03-11T18:31:06.832Z,100561.44
2023-03-11T18:33:10.320Z,100558.72
2023-03-11T18:35:14.202Z,100554.22
2023-03-11T18:37:19.019Z,100548.69
2023-03-11T18:39:22.466Z,100546.91
2023-03-11T18:41:27.051Z,100553.84
2023-03-11T18:43:30.875Z,100562.16
2023-03-11T18:45:34.448Z,100544.78
2023-03-11T18:47:38.133Z,100552.25
2023-03-11T18:49:42.712Z,100559.00
2023-03-11T18:51:46.345Z,100536.38
2023-03-11T18:53:51.077Z,100541.69
2023-03-11T18:56:00.510Z,100412.66
2023-03-11T18:58:09.261Z,100549.13
2023-03-11T19:00:13.636Z,100525.69
2023-03-11T19:02:16.989Z,100556.94
2023-03-11T19:04:20.358Z,100552.53
2023-03-11T19:06:24.456Z,100568.94
2023-03-11T19:08:28.418Z,100556.69
2023-03-11T19:10:33.229Z,100565.50
2023-03-11T19:12:38.096Z,100565.34
2023-03-11T19:14:41.503Z,100564.19
2023-03-11T19:16:44.974Z,100565.88
2023-03-11T19:18:48.311Z,100567.41
2023-03-11T19:20:57.583Z,100574.06
2023-03-11T19:23:00.924Z,100574.19
2023-03-11T19:25:05.305Z,100558.69
2023-03-11T19:27:10.030Z,100572.78
2023-03-11T19:29:14.485Z,100584.94
2023-03-11T19:31:17.995Z,100575.16
2023-03-11T19:33:22.508Z,100578.63
2023-03-11T19:35:26.315Z,100580.22
2023-03-11T19:37:31.391Z,100571.31
2023-03-11T19:39:34.871Z,100579.00
2023-03-11T19:41:38.230Z,100570.91
2023-03-11T19:43:43.252Z,100567.38
2023-03-11T19:45:50.168Z,100541.34
2023-03-11T19:47:53.623Z,100578.00
2023-03-11T19:49:58.692Z,100578.53
2023-03-11T19:52:02.375Z,100594.31
2023-03-11T19:54:05.734Z,100587.09
2023-03-11T19:56:09.570Z,100597.50
2023-03-11T19:58:13.367Z,100596.63
2023-03-11T20:00:19.750Z,100569.22
2023-03-11T20:02:23.236Z,100599.22
2023-03-11T20:04:26.792Z,100600.00
2023-03-11T20:06:30.525Z,100596.25
2023-03-11T20:08:36.635Z,100596.34
2023-03-11T20:10:42.002Z,100599.59
2023-03-11T20:13:01.251Z,100602.94
2023-03-11T20:15:06.009Z,100599.53
2023-03-11T20:17:12.065Z,100603.41
2023-03-11T20:19:15.585Z,100597.13
2023-03-11T20:21:18.992Z,100599.66
2023-03-11T20:23:22.387Z,100593.97
2023-03-11T20:25:30.865Z,100601.56
2023-03-11T20:27:34.215Z,100591.97
2023-03-11T20:29:37.922Z,100587.78
2023-03-11T20:31:41.576Z,100584.44
2023-03-11T20:33:46.776Z,100587.63
2023-03-11T20:35:50.377Z,100575.44
2023-03-11T20:37:53.830Z,100587.31
2023-03-11T20:39:57.778Z,100584.88
2023-03-11T20:42:01.182Z,100589.91
2023-03-11T20:44:06.513Z,100578.19
2023-03-11T20:46:11.609Z,100585.63
2023-03-11T20:48:15.118Z,100587.25
2023-03-11T20:50:21.386Z,100589.47
2023-03-11T20:52:25.596Z,100585.25
2023-03-11T20:54:29.131Z,100583.72
2023-03-11T20:56:32.609Z,100589.31
2023-03-11T20:58:36.718Z,100587.72
2023-03-11T21:00:40.092Z,100585.69
2023-03-11T21:02:44.393Z,100581.88
2023-03-11T21:04:47.943Z,100590.06
2023-03-11T21:06:54.888Z,100584.00
2023-03-11T21:09:00.594Z,100596.41
2023-03-11T21:11:03.998Z,100583.56
2023-03-11T21:13:07.735Z,100583.78
2023-03-11T21:15:12.355Z,100558.91
2023-03-11T21:17:17.332Z,100590.75
2023-03-11T21:19:22.418Z,100587.31
2023-03-11T21:21:25.944Z,100586.47
2023-03-11T21:23:30.701Z,100584.38
2023-03-11T21:25:34.688Z,100579.06
2023-03-11T21:27:38.059Z,100587.72
2023-03-11T21:29:43.838Z,100590.19
2023-03-11T21:31:47.247Z,100588.38
2023-03-11T21:33:54.134Z,100587.25
2023-03-11T21:35:59.917Z,100580.97
2023-03-11T21:38:03.335Z,100581.78
2023-03-11T21:40:10.159Z,100582.66
2023-03-11T21:42:14.285Z,100580.81
2023-03-11T21:44:18.080Z,100578.25
2023-03-11T21:46:23.990Z,100538.09
2023-03-11T21:48:27.615Z,100582.50
2023-03-11T21:50:30.986Z,100447.91
2023-03-11T21:52:34.408Z,100565.03
2023-03-11T21:54:37.871Z,100576.09
2023-03-11T21:56:42.788Z,100571.34
2023-03-11T21:58:46.366Z,100578.00
2023-03-11T22:00:50.140Z,100578.06
2023-03-11T22:02:53.533Z,100573.56
2023-03-11T22:04:57.025Z,100556.28
2023-03-11T22:07:00.575Z,100578.78
2023-03-11T22:09:05.597Z,100572.09
2023-03-11T22:11:10.680Z,100575.41
2023-03-11T22:13:15.506Z,100571.06
2023-03-11T22:15:19.170Z,100572.75
2023-03-11T22:17:22.745Z,100572.44
2023-03-11T22:19:26.232Z,100577.53
2023-03-11T22:21:29.625Z,100575.69
2023-03-11T22:23:34.939Z,100579.28
2023-03-11T22:25:38.404Z,100555.31
2023-03-11T22:27:41.792Z,100577.75
2023-03-11T22:29:46.516Z,100580.44
2023-03-11T22:31:50.078Z,100584.69
2023-03-11T22:33:53.439Z,100583.81
2023-03-11T22:35:59.271Z,100550.88
2023-03-11T22:38:02.722Z,100580.44
2023-03-11T22:40:08.737Z,100581.47
2023-03-11T22:42:12.871Z,100571.16
2023-03-11T22:44:16.192Z,100573.47
2023-03-11T22:46:20.895Z,100586.09
2023-03-11T22:48:24.372Z,100584.44
2023-03-11T22:50:28.201Z,100584.69
2023-03-11T22:52:31.665Z,100580.56
2023-03-11T22:54:35.029Z,100585.78
2023-03-11T22:56:38.365Z,100577.44
2023-03-11T22:58:42.176Z,100572.66
2023-03-11T23:00:45.494Z,100576.22
2023-03-11T23:02:53.615Z,100593.56
2023-03-11T23:04:57.074Z,100576.38
2023-03-11T23:07:00.402Z,100577.69
2023-03-11T23:09:04.569Z,100572.75
2023-03-11T23:11:10.107Z,100574.28
2023-03-11T23:13:13.870Z,100555.19
2023-03-11T23:15:19.800Z,100572.84
2023-03-11T23:17:23.101Z,100575.13
2023-03-11T23:19:27.749Z,100581.06
2023-03-11T23:21:33.073Z,100568.19
2023-03-11T23:23:36.471Z,100574.75
2023-03-11T23:25:40.903Z,100541.75
2023-03-11T23:27:46.636Z,100532.16
2023-03-11T23:29:50.559Z,100545.72
2023-03-11T23:31:54.022Z,100570.28
2023-03-11T23:33:57.828Z,100560.50
2023-03-11T23:36:03.396Z,100569.53
2023-03-11T23:38:06.788Z,100567.44
2023-03-11T23:40:11.413Z,100561.88
2023-03-11T23:42:24.940Z,100571.84
2023-03-11T23:44:29.374Z,100552.50
2023-03-11T23:46:33.268Z,100562.56
2023-03-11T23:48:36.753Z,100555.84
2023-03-11T23:50:40.042Z,100565.75
2023-03-11T23:52:44.815Z,100556.72
2023-03-11T23:54:48.186Z,100564.03
2023-03-11T23:56:51.611Z,100547.94
2023-03-11T23:58:55.021Z,100558.41
